createdAt,value
2024-02-23T00:01:15.262Z,98443.41
2024-02-23T00:03:42.294Z,98443.41
2024-02-23T00:06:11.965Z,98441.97
2024-02-23T00:08:39.256Z,98447.09
2024-02-23T00:11:06.621Z,98454.38
2024-02-23T00:13:33.687Z,98463.59
2024-02-23T00:16:00.731Z,98468.78
2024-02-23T00:18:28.107Z,98459.88
2024-02-23T00:20:55.055Z,98459.84
2024-02-23T00:23:24.675Z,98489.81
2024-02-23T00:25:51.924Z,98487.34
2024-02-23T00:28:18.885Z,98488.34
2024-02-23T00:30:46.038Z,98501.78
2024-02-23T00:33:13.105Z,98502.78
2024-02-23T00:35:40.231Z,98509.19
2024-02-23T00:38:08.059Z,98500.34
2024-02-23T00:40:37.668Z,98492.47
2024-02-23T00:43:05.075Z,98500.28
2024-02-23T00:45:32.098Z,98496.38
2024-02-23T00:47:59.096Z,98507.72
2024-02-23T00:50:26.348Z,98509.38
2024-02-23T00:52:53.423Z,98516.56
2024-02-23T00:55:20.714Z,98526.25
2024-02-23T00:57:50.875Z,98531.25
2024-02-23T01:00:18.585Z,98539.09
2024-02-23T01:02:45.621Z,98552.25
2024-02-23T01:05:12.623Z,98547.91
2024-02-23T01:07:39.612Z,98526.88
2024-02-23T01:10:08.043Z,98544.00
2024-02-23T01:12:35.069Z,98533.25
2024-02-23T01:15:06.415Z,98524.78
2024-02-23T01:17:33.709Z,98547.28
2024-02-23T01:20:01.166Z,98545.63
2024-02-23T01:22:28.486Z,98546.84
2024-02-23T01:24:55.403Z,98554.25
2024-02-23T01:27:22.502Z,98570.78
2024-02-23T01:29:49.466Z,98553.81
2024-02-23T01:32:19.085Z,98561.25
2024-02-23T01:34:46.224Z,98553.19
2024-02-23T01:37:13.251Z,98568.28
2024-02-23T01:39:40.197Z,98568.28
2024-02-23T01:42:07.382Z,98560.19
2024-02-23T01:44:35.573Z,98576.09
2024-02-23T01:47:03.151Z,98576.94
2024-02-23T01:49:35.028Z,98587.66
2024-02-23T01:52:04.386Z,98587.25
2024-02-23T01:54:32.150Z,98587.66
2024-02-23T01:57:08.304Z,98590.53
2024-02-23T01:59:49.648Z,98605.44
2024-02-23T02:02:17.537Z,98595.91
2024-02-23T02:04:47.096Z,98588.69
2024-02-23T02:07:15.571Z,98597.94
2024-02-23T02:09:44.663Z,98589.25
2024-02-23T02:12:12.866Z,98596.75
2024-02-23T02:14:50.316Z,98602.94
2024-02-23T02:17:17.302Z,98613.69
2024-02-23T02:19:49.977Z,98609.34
2024-02-23T02:22:17.025Z,98608.31
2024-02-23T02:24:43.978Z,98608.31
2024-02-23T02:27:11.021Z,98604.53
2024-02-23T02:29:38.166Z,98598.72
2024-02-23T02:32:05.986Z,98601.84
2024-02-23T02:34:34.974Z,98611.38
2024-02-23T02:37:04.544Z,98603.31
2024-02-23T02:39:31.741Z,98601.59
2024-02-23T02:41:58.645Z,98598.09
2024-02-23T02:44:28.716Z,98606.53
2024-02-23T02:46:55.716Z,98598.72
2024-02-23T02:49:22.770Z,98614.59
2024-02-23T02:51:52.016Z,98610.38
2024-02-23T02:54:21.629Z,98602.75
2024-02-23T02:56:49.689Z,98597.84
2024-02-23T02:59:19.722Z,98605.50
2024-02-23T03:01:49.215Z,98605.66
2024-02-23T03:04:18.142Z,98608.13
2024-02-23T03:06:46.567Z,98607.28
2024-02-23T03:09:28.411Z,98611.03
2024-02-23T03:11:56.452Z,98624.03
2024-02-23T03:14:23.466Z,98615.50
2024-02-23T03:16:50.707Z,98605.50
2024-02-23T03:19:17.913Z,98602.94
2024-02-23T03:21:44.859Z,98584.81
2024-02-23T03:24:11.787Z,98590.56
2024-02-23T03:26:42.153Z,98580.56
2024-02-23T03:29:09.267Z,98594.56
2024-02-23T03:31:36.707Z,98592.31
2024-02-23T03:34:03.866Z,98595.53
2024-02-23T03:36:33.041Z,98583.53
2024-02-23T03:38:59.955Z,98602.19
2024-02-23T03:41:27.055Z,98601.56
2024-02-23T03:43:56.686Z,98599.28
2024-02-23T03:46:23.643Z,98607.16
2024-02-23T03:48:50.689Z,98609.47
2024-02-23T03:51:19.620Z,98605.50
2024-02-23T03:53:47.091Z,98609.84
2024-02-23T03:56:14.187Z,98616.44
2024-02-23T03:58:41.301Z,98610.88
2024-02-23T04:01:12.322Z,98622.00
2024-02-23T04:03:39.597Z,98628.56
2024-02-23T04:06:06.737Z,98632.44
2024-02-23T04:08:34.002Z,98637.28
2024-02-23T04:11:01.311Z,98641.81
2024-02-23T04:13:29.519Z,98648.00
2024-02-23T04:15:56.731Z,98637.00
2024-02-23T04:18:26.375Z,98639.50
2024-02-23T04:20:53.588Z,98648.94
2024-02-23T04:23:20.809Z,98639.50
2024-02-23T04:25:47.977Z,98632.66
2024-02-23T04:28:15.030Z,98639.41
2024-02-23T04:30:41.972Z,98639.66
2024-02-23T04:33:09.021Z,98635.91
2024-02-23T04:35:39.428Z,98631.94
2024-02-23T04:38:06.465Z,98625.94
2024-02-23T04:40:33.496Z,98620.09
2024-02-23T04:43:00.581Z,98616.81
2024-02-23T04:45:27.519Z,98623.75
2024-02-23T04:47:54.488Z,98615.50
2024-02-23T04:50:21.787Z,98625.78
2024-02-23T04:52:51.388Z,98616.34
2024-02-23T04:55:18.356Z,98619.19
2024-02-23T04:57:45.326Z,98609.31
2024-02-23T05:00:15.594Z,98610.59
2024-02-23T05:02:42.567Z,98608.28
2024-02-23T05:05:10.453Z,98608.56
2024-02-23T05:07:37.441Z,98628.97
2024-02-23T05:10:08.004Z,98619.91
2024-02-23T05:12:35.568Z,98625.94
2024-02-23T05:15:03.972Z,98612.75
2024-02-23T05:17:32.511Z,98611.72
2024-02-23T05:19:59.868Z,98614.66
2024-02-23T05:22:26.814Z,98611.72
2024-02-23T05:24:53.854Z,98616.19
2024-02-23T05:27:23.482Z,98620.66
2024-02-23T05:29:52.082Z,98622.97
2024-02-23T05:32:19.094Z,98618.88
2024-02-23T05:34:46.053Z,98621.41
2024-02-23T05:37:13.016Z,98628.22
2024-02-23T05:39:39.927Z,98636.19
2024-02-23T05:42:08.653Z,98645.25
2024-02-23T05:44:38.193Z,98642.47
2024-02-23T05:47:05.261Z,98654.59
2024-02-23T05:49:32.279Z,98649.59
2024-02-23T05:51:59.338Z,98642.47
2024-02-23T05:54:27.941Z,98636.50
2024-02-23T05:56:54.954Z,98645.56
2024-02-23T05:59:21.956Z,98625.31
2024-02-23T06:01:51.666Z,98637.88
2024-02-23T06:04:18.684Z,98648.59
2024-02-23T06:06:45.952Z,98646.81
2024-02-23T06:09:13.067Z,98652.00
2024-02-23T06:11:40.195Z,98661.34
2024-02-23T06:14:07.255Z,98659.47
2024-02-23T06:16:34.208Z,98655.44
2024-02-23T06:19:03.882Z,98653.84
2024-02-23T06:21:30.851Z,98652.00
2024-02-23T06:24:01.137Z,98658.38
2024-02-23T06:26:28.063Z,98667.34
2024-02-23T06:28:55.179Z,98663.38
2024-02-23T06:31:22.314Z,98672.78
2024-02-23T06:33:49.359Z,98664.75
2024-02-23T06:36:19.172Z,98668.75
2024-02-23T06:38:46.544Z,98666.69
2024-02-23T06:41:13.642Z,98658.03
2024-02-23T06:43:40.620Z,98666.06
2024-02-23T06:46:09.259Z,98661.91
2024-02-23T06:48:37.145Z,98660.06
2024-02-23T06:51:04.940Z,98649.88
2024-02-23T06:53:34.577Z,98654.69
2024-02-23T06:56:01.848Z,98664.75
2024-02-23T06:58:29.113Z,98670.69
2024-02-23T07:00:56.196Z,98663.47
2024-02-23T07:03:24.130Z,98662.06
2024-02-23T07:05:51.265Z,98664.22
2024-02-23T07:08:18.527Z,98663.75
2024-02-23T07:10:48.504Z,98662.34
2024-02-23T07:13:15.472Z,98670.38
2024-02-23T07:15:42.527Z,98681.84
2024-02-23T07:18:09.745Z,98678.41
2024-02-23T07:20:37.379Z,98688.13
2024-02-23T07:23:05.284Z,98692.22
2024-02-23T07:25:32.570Z,98688.69
2024-02-23T07:28:02.273Z,98686.84
2024-02-23T07:30:29.296Z,98684.34
2024-02-23T07:32:56.396Z,98687.69
2024-02-23T07:35:25.877Z,98689.63
2024-02-23T07:37:53.433Z,98689.06
2024-02-23T07:40:22.529Z,98691.47
2024-02-23T07:42:49.946Z,98693.22
2024-02-23T07:45:19.506Z,98702.84
2024-02-23T07:47:47.258Z,98703.69
2024-02-23T07:50:14.737Z,98702.38
2024-02-23T07:52:41.804Z,98703.59
2024-02-23T07:55:09.933Z,98709.03
2024-02-23T07:57:37.216Z,98716.16
2024-02-23T08:00:07.612Z,98705.81
2024-02-23T08:02:37.397Z,98704.88
2024-02-23T08:05:04.856Z,98702.47
2024-02-23T08:07:34.266Z,98696.63
2024-02-23T08:10:02.976Z,98702.47
2024-02-23T08:12:30.110Z,98684.28
2024-02-23T08:14:58.470Z,98687.75
2024-02-23T08:17:25.545Z,98693.72
2024-02-23T08:19:55.551Z,98682.34
2024-02-23T08:22:22.517Z,98685.47
2024-02-23T08:24:49.459Z,98680.44
2024-02-23T08:27:17.701Z,98681.09
2024-02-23T08:29:44.710Z,98684.94
2024-02-23T08:32:15.184Z,98681.78
2024-02-23T08:34:42.307Z,98672.38
2024-02-23T08:37:14.998Z,98674.13
2024-02-23T08:39:42.067Z,98682.66
2024-02-23T08:42:10.245Z,98675.63
2024-02-23T08:44:38.653Z,98681.41
2024-02-23T08:47:07.867Z,98675.44
2024-02-23T08:49:34.904Z,98669.53
2024-02-23T08:52:02.063Z,98669.84
2024-02-23T08:54:31.776Z,98665.75
2024-02-23T08:56:58.695Z,98665.88
2024-02-23T08:59:25.699Z,98674.84
2024-02-23T09:01:53.407Z,98668.59
2024-02-23T09:04:20.406Z,98665.53
2024-02-23T09:06:48.936Z,98661.72
2024-02-23T09:09:15.941Z,98652.06
2024-02-23T09:11:47.007Z,98658.72
2024-02-23T09:14:14.108Z,98653.75
2024-02-23T09:16:41.094Z,98663.69
2024-02-23T09:19:08.410Z,98660.75
2024-02-23T09:21:40.491Z,98661.41
2024-02-23T09:24:07.845Z,98674.13
2024-02-23T09:26:35.158Z,98667.03
2024-02-23T09:29:04.864Z,98656.97
2024-02-23T09:31:32.156Z,98659.97
2024-02-23T09:33:59.358Z,98657.69
2024-02-23T09:36:26.516Z,98659.34
2024-02-23T09:38:53.876Z,98656.81
2024-02-23T09:41:22.307Z,98651.44
2024-02-23T09:43:50.282Z,98658.63
2024-02-23T09:46:21.910Z,98644.16
2024-02-23T09:48:51.673Z,98645.84
2024-02-23T09:51:24.934Z,98645.03
2024-02-23T09:53:52.033Z,98649.56
2024-02-23T09:56:22.434Z,98649.94
2024-02-23T09:58:51.909Z,98652.44
2024-02-23T10:01:29.921Z,98644.41
2024-02-23T10:03:58.619Z,98654.50
2024-02-23T10:06:26.149Z,98644.81
2024-02-23T10:08:53.423Z,98637.81
2024-02-23T10:11:21.578Z,98653.16
2024-02-23T10:13:48.915Z,98643.25
2024-02-23T10:16:17.125Z,98641.44
2024-02-23T10:18:48.941Z,98632.81
2024-02-23T10:21:16.070Z,98636.75
2024-02-23T10:23:43.579Z,98638.22
2024-02-23T10:26:10.842Z,98629.13
2024-02-23T10:28:38.451Z,98629.16
2024-02-23T10:31:06.000Z,98634.75
2024-02-23T10:33:33.616Z,98627.09
2024-02-23T10:36:08.192Z,98640.38
2024-02-23T10:38:39.600Z,98645.53
2024-02-23T10:41:07.289Z,98649.91
2024-02-23T10:43:42.641Z,98643.06
2024-02-23T10:46:12.514Z,98644.53
2024-02-23T10:48:40.375Z,98649.91
2024-02-23T10:51:14.608Z,98659.00
2024-02-23T10:53:46.330Z,98650.94
2024-02-23T10:56:13.509Z,98660.50
2024-02-23T10:58:40.534Z,98647.66
2024-02-23T11:01:11.617Z,98667.78
2024-02-23T11:03:42.741Z,98655.53
2024-02-23T11:06:13.325Z,98657.63
2024-02-23T11:08:40.646Z,98656.16
2024-02-23T11:11:12.708Z,98659.47
2024-02-23T11:13:41.393Z,98667.13
2024-02-23T11:16:10.279Z,98664.06
2024-02-23T11:18:40.403Z,98666.69
2024-02-23T11:21:15.996Z,98643.59
2024-02-23T11:23:44.349Z,98644.94
2024-02-23T11:26:12.574Z,98639.34
2024-02-23T11:28:49.152Z,98643.66
2024-02-23T11:31:19.986Z,98649.59
2024-02-23T11:33:50.656Z,98641.09
2024-02-23T11:36:30.614Z,98637.97
2024-02-23T11:39:00.915Z,98636.00
2024-02-23T11:41:29.331Z,98630.34
2024-02-23T11:44:00.752Z,98634.03
2024-02-23T11:46:27.805Z,98619.59
2024-02-23T11:48:55.066Z,98624.25
2024-02-23T11:51:25.586Z,98630.19
2024-02-23T11:53:54.845Z,98622.19
2024-02-23T11:56:21.869Z,98627.00
2024-02-23T11:58:48.938Z,98617.38
2024-02-23T12:01:27.179Z,98610.97
2024-02-23T12:03:54.201Z,98610.59
2024-02-23T12:06:21.696Z,98614.28
2024-02-23T12:08:51.664Z,98612.31
2024-02-23T12:11:19.420Z,98607.28
2024-02-23T12:13:49.118Z,98604.13
2024-02-23T12:16:16.289Z,98608.47
2024-02-23T12:18:43.397Z,98609.84
2024-02-23T12:21:11.146Z,98597.19
2024-02-23T12:23:42.236Z,98588.56
2024-02-23T12:26:16.860Z,98609.72
2024-02-23T12:28:45.021Z,98607.78
2024-02-23T12:31:12.128Z,98587.56
2024-02-23T12:33:40.640Z,98572.00
2024-02-23T12:36:09.840Z,98584.44
2024-02-23T12:38:37.212Z,98603.06
2024-02-23T12:41:05.638Z,98600.91
2024-02-23T12:43:44.497Z,98605.25
2024-02-23T12:46:12.657Z,98597.53
2024-02-23T12:48:39.598Z,98602.50
2024-02-23T12:51:06.652Z,98597.13
2024-02-23T12:53:35.816Z,98604.69
2024-02-23T12:56:05.760Z,98605.13
2024-02-23T12:58:36.228Z,98605.44
2024-02-23T13:01:04.010Z,98607.81
2024-02-23T13:03:31.571Z,98601.38
2024-02-23T13:05:59.940Z,98598.78
2024-02-23T13:08:27.649Z,98596.84
2024-02-23T13:10:55.971Z,98597.81
2024-02-23T13:13:24.373Z,98589.72
2024-02-23T13:15:55.352Z,98590.13
2024-02-23T13:18:22.465Z,98597.56
2024-02-23T13:20:49.622Z,98585.53
2024-02-23T13:23:17.162Z,98591.84
2024-02-23T13:25:47.116Z,98588.84
2024-02-23T13:28:14.414Z,98586.88
2024-02-23T13:30:41.360Z,98588.41
2024-02-23T13:33:17.172Z,98577.56
2024-02-23T13:35:44.700Z,98562.53
2024-02-23T13:38:11.822Z,98559.34
2024-02-23T13:40:47.883Z,98567.84
2024-02-23T13:43:14.928Z,98579.53
2024-02-23T13:45:54.063Z,98573.38
2024-02-23T13:48:24.025Z,98568.00
2024-02-23T13:54:05.818Z,98555.41
2024-02-23T13:59:22.768Z,98562.69
2024-02-23T14:01:50.279Z,98561.25
2024-02-23T14:04:20.131Z,98547.16
2024-02-23T14:06:47.108Z,98544.06
2024-02-23T14:09:14.221Z,98538.16
2024-02-23T14:11:41.442Z,98541.06
2024-02-23T14:14:08.663Z,98541.34
2024-02-23T14:16:35.612Z,98531.47
2024-02-23T14:19:02.918Z,98520.22
2024-02-23T14:21:32.799Z,98514.63
2024-02-23T14:23:59.764Z,98514.72
2024-02-23T14:26:28.997Z,98529.31
2024-02-23T14:28:56.087Z,98520.78
2024-02-23T14:31:23.155Z,98524.28
2024-02-23T14:33:51.370Z,98524.75
2024-02-23T14:36:18.396Z,98521.47
2024-02-23T14:38:47.951Z,98508.97
2024-02-23T14:41:14.906Z,98492.47
2024-02-23T14:43:41.937Z,98494.81
2024-02-23T14:46:08.886Z,98494.09
2024-02-23T14:48:35.985Z,98503.00
2024-02-23T14:51:03.182Z,98503.66
2024-02-23T14:53:30.241Z,98503.31
2024-02-23T14:55:59.916Z,98508.84
2024-02-23T14:58:26.887Z,98506.22
2024-02-23T15:00:53.941Z,98499.44
2024-02-23T15:03:20.950Z,98495.81
2024-02-23T15:05:48.057Z,98489.81
2024-02-23T15:08:15.122Z,98503.59
2024-02-23T15:10:42.390Z,98498.91
2024-02-23T15:13:12.155Z,98498.28
2024-02-23T15:15:41.324Z,98494.91
2024-02-23T15:18:08.649Z,98487.53
2024-02-23T15:20:36.376Z,98493.28
2024-02-23T15:23:03.492Z,98490.44
2024-02-23T15:25:30.645Z,98501.25
2024-02-23T15:27:59.929Z,98495.13
2024-02-23T15:30:29.463Z,98501.59
2024-02-23T15:32:57.044Z,98500.53
2024-02-23T15:35:24.041Z,98498.94
2024-02-23T15:37:52.147Z,98503.09
2024-02-23T15:40:19.029Z,98494.47
2024-02-23T15:42:46.049Z,98495.16
2024-02-23T15:45:13.045Z,98488.44
2024-02-23T15:47:42.704Z,98492.09
2024-02-23T15:50:28.845Z,98487.19
2024-02-23T15:52:57.609Z,98490.22
2024-02-23T15:55:24.743Z,98490.97
2024-02-23T15:57:51.773Z,98485.56
2024-02-23T16:00:20.140Z,98481.50
2024-02-23T16:02:50.299Z,98488.44
2024-02-23T16:05:17.315Z,98484.16
2024-02-23T16:07:44.604Z,98491.88
2024-02-23T16:10:11.693Z,98496.59
2024-02-23T16:12:38.804Z,98491.66
2024-02-23T16:15:07.675Z,98488.41
2024-02-23T16:17:36.403Z,98493.38
2024-02-23T16:20:07.787Z,98492.00
2024-02-23T16:22:35.142Z,98490.81
2024-02-23T16:25:02.143Z,98495.19
2024-02-23T16:27:29.255Z,98488.09
2024-02-23T16:29:56.218Z,98497.28
2024-02-23T16:32:25.705Z,98493.63
2024-02-23T16:34:52.769Z,98489.88
2024-02-23T16:37:22.442Z,98488.44
2024-02-23T16:39:49.967Z,98493.31
2024-02-23T16:42:17.255Z,98490.59
2024-02-23T16:44:45.156Z,98486.38
2024-02-23T16:47:12.314Z,98486.78
2024-02-23T16:49:39.279Z,98483.16
2024-02-23T16:52:07.054Z,98494.16
2024-02-23T16:54:36.681Z,98493.16
2024-02-23T16:57:03.848Z,98496.63
2024-02-23T16:59:31.018Z,98493.94
2024-02-23T17:01:59.317Z,98489.59
2024-02-23T17:04:26.688Z,98490.44
2024-02-23T17:06:53.632Z,98492.19
2024-02-23T17:09:20.686Z,98496.28
2024-02-23T17:11:50.707Z,98502.91
2024-02-23T17:14:19.467Z,98499.28
2024-02-23T17:16:46.421Z,98497.63
2024-02-23T17:19:13.746Z,98504.69
2024-02-23T17:21:40.747Z,98499.94
2024-02-23T17:24:07.939Z,98510.97
2024-02-23T17:26:34.966Z,98516.56
2024-02-23T17:29:07.679Z,98511.44
2024-02-23T17:31:34.566Z,98512.47
2024-02-23T17:34:01.631Z,98520.53
2024-02-23T17:36:28.601Z,98517.63
2024-02-23T17:38:59.798Z,98514.13
2024-02-23T17:41:26.869Z,98515.63
2024-02-23T17:43:54.074Z,98518.91
2024-02-23T17:46:23.753Z,98523.09
2024-02-23T17:48:50.916Z,98513.97
2024-02-23T17:51:17.892Z,98514.19
2024-02-23T17:53:48.476Z,98518.97
2024-02-23T17:56:15.433Z,98517.31
2024-02-23T17:58:42.385Z,98517.31
2024-02-23T18:01:09.388Z,98520.59
2024-02-23T18:03:39.132Z,98528.88
2024-02-23T18:06:06.337Z,98530.97
2024-02-23T18:08:33.411Z,98525.16
2024-02-23T18:11:01.545Z,98528.47
2024-02-23T18:13:29.949Z,98529.91
2024-02-23T18:15:56.983Z,98525.53
2024-02-23T18:18:24.118Z,98524.28
2024-02-23T18:20:53.708Z,98530.47
2024-02-23T18:23:20.832Z,98528.00
2024-02-23T18:25:47.825Z,98529.44
2024-02-23T18:28:14.852Z,98532.94
2024-02-23T18:30:41.745Z,98539.53
2024-02-23T18:33:09.524Z,98539.31
2024-02-23T18:35:36.651Z,98538.66
2024-02-23T18:38:06.277Z,98545.53
2024-02-23T18:40:33.200Z,98547.78
2024-02-23T18:43:00.172Z,98548.00
2024-02-23T18:45:29.573Z,98545.53
2024-02-23T18:47:56.730Z,98553.09
2024-02-23T18:50:26.775Z,98557.66
2024-02-23T18:52:53.789Z,98550.84
2024-02-23T18:55:23.408Z,98542.78
2024-02-23T18:57:50.410Z,98545.25
2024-02-23T19:00:17.951Z,98549.38
2024-02-23T19:02:47.375Z,98532.03
2024-02-23T19:05:14.920Z,98543.56
2024-02-23T19:07:42.014Z,98549.56
2024-02-23T19:10:09.674Z,98550.16
2024-02-23T19:12:39.505Z,98543.16
2024-02-23T19:15:07.893Z,98548.50
2024-02-23T19:17:34.921Z,98547.31
2024-02-23T19:20:02.136Z,98541.03
2024-02-23T19:22:29.191Z,98541.72
2024-02-23T19:24:56.106Z,98544.47
2024-02-23T19:27:23.056Z,98552.28
2024-02-23T19:29:52.559Z,98546.47
2024-02-23T19:32:19.517Z,98547.34
2024-02-23T19:34:48.701Z,98541.56
2024-02-23T19:37:15.754Z,98556.44
2024-02-23T19:39:42.953Z,98552.47
2024-02-23T19:42:10.046Z,98555.25
2024-02-23T19:44:37.099Z,98545.72
2024-02-23T19:47:07.654Z,98549.44
2024-02-23T19:49:35.448Z,98555.25
2024-02-23T19:52:02.602Z,98551.28
2024-02-23T19:54:29.508Z,98546.09
2024-02-23T19:56:56.485Z,98553.56
2024-02-23T19:59:26.447Z,98543.81
2024-02-23T20:01:53.387Z,98543.63
2024-02-23T20:04:25.212Z,98539.25
2024-02-23T20:06:52.195Z,98534.50
2024-02-23T20:09:19.310Z,98537.78
2024-02-23T20:11:46.281Z,98541.50
2024-02-23T20:14:13.357Z,98534.03
2024-02-23T20:16:40.457Z,98536.47
2024-02-23T20:19:07.515Z,98534.81
2024-02-23T20:21:40.235Z,98532.44
2024-02-23T20:24:08.023Z,98532.88
2024-02-23T20:26:34.987Z,98537.59
2024-02-23T20:29:02.033Z,98539.06
2024-02-23T20:31:28.946Z,98536.38
2024-02-23T20:33:56.438Z,98537.13
2024-02-23T20:36:23.561Z,98541.22
2024-02-23T20:38:53.150Z,98539.53
2024-02-23T20:41:20.228Z,98534.16
2024-02-23T20:43:47.323Z,98530.22
2024-02-23T20:46:14.322Z,98534.13
2024-02-23T20:48:41.383Z,98533.94
2024-02-23T20:51:08.397Z,98545.63
2024-02-23T20:53:35.477Z,98543.59
2024-02-23T20:56:06.457Z,98551.50
2024-02-23T20:58:33.486Z,98545.34
2024-02-23T21:01:03.258Z,98546.19
2024-02-23T21:03:30.590Z,98552.28
2024-02-23T21:05:57.617Z,98554.97
2024-02-23T21:08:24.646Z,98553.28
2024-02-23T21:10:51.694Z,98557.19
2024-02-23T21:13:21.326Z,98557.00
2024-02-23T21:15:50.377Z,98552.66
2024-02-23T21:18:17.708Z,98557.00
2024-02-23T21:20:45.504Z,98561.75
2024-02-23T21:23:12.849Z,98560.22
2024-02-23T21:25:39.942Z,98565.31
2024-02-23T21:28:07.628Z,98563.81
2024-02-23T21:30:37.300Z,98561.94
2024-02-23T21:33:07.070Z,98563.31
2024-02-23T21:35:34.215Z,98563.59
2024-02-23T21:38:01.223Z,98560.13
2024-02-23T21:40:28.236Z,98562.31
2024-02-23T21:42:57.067Z,98566.47
2024-02-23T21:45:24.032Z,98566.88
2024-02-23T21:47:57.479Z,98566.88
2024-02-23T21:50:24.575Z,98561.94
2024-02-23T21:52:53.374Z,98559.25
2024-02-23T21:55:20.580Z,98571.78
2024-02-23T21:57:47.543Z,98562.63
2024-02-23T22:00:15.251Z,98571.63
2024-02-23T22:02:42.572Z,98573.88
2024-02-23T22:05:12.512Z,98587.00
2024-02-23T22:07:39.525Z,98580.72
2024-02-23T22:10:07.954Z,98592.72
2024-02-23T22:12:35.150Z,98595.66
2024-02-23T22:15:03.338Z,98593.69
2024-02-23T22:17:30.391Z,98597.72
2024-02-23T22:19:57.656Z,98601.53
2024-02-23T22:22:28.056Z,98615.97
2024-02-23T22:24:54.975Z,98622.25
2024-02-23T22:27:21.934Z,98625.44
2024-02-23T22:29:48.949Z,98627.88
2024-02-23T22:32:15.866Z,98635.28
2024-02-23T22:34:43.006Z,98637.09
2024-02-23T22:37:09.958Z,98632.97
2024-02-23T22:39:39.450Z,98638.34
2024-02-23T22:42:06.541Z,98640.91
2024-02-23T22:44:33.788Z,98636.97
2024-02-23T22:47:00.979Z,98636.31
2024-02-23T22:49:28.148Z,98633.81
2024-02-23T22:51:55.240Z,98633.44
2024-02-23T22:54:22.236Z,98637.09
2024-02-23T22:56:51.832Z,98633.94
2024-02-23T22:59:18.842Z,98613.44
2024-02-23T23:01:45.912Z,98620.59
2024-02-23T23:04:12.963Z,98621.59
2024-02-23T23:06:42.463Z,98624.34
2024-02-23T23:09:09.614Z,98627.75
2024-02-23T23:11:36.765Z,98629.09
2024-02-23T23:14:07.321Z,98635.31
2024-02-23T23:16:34.352Z,98638.53
2024-02-23T23:19:01.489Z,98642.69
2024-02-23T23:21:28.909Z,98642.06
2024-02-23T23:23:55.897Z,98642.09
2024-02-23T23:26:22.962Z,98637.69
2024-02-23T23:28:50.022Z,98629.94
2024-02-23T23:31:20.063Z,98637.69
2024-02-23T23:33:47.090Z,98638.47
2024-02-23T23:36:15.383Z,98642.94
2024-02-23T23:38:43.488Z,98647.97
2024-02-23T23:41:12.039Z,98647.31
2024-02-23T23:43:40.047Z,98636.13
2024-02-23T23:46:07.106Z,98640.38
2024-02-23T23:48:37.245Z,98639.81
2024-02-23T23:51:04.896Z,98642.94
2024-02-23T23:53:32.190Z,98639.50
2024-02-23T23:55:59.503Z,98644.84
2024-02-23T23:58:26.485Z,98631.94
